createdAt,value
2018-07-23T00:01:12.261Z,11.53
2018-07-23T00:03:40.221Z,14.63
2018-07-23T00:06:08.208Z,16.87
2018-07-23T00:08:36.486Z,10.83
2018-07-23T00:11:05.046Z,10.90
2018-07-23T00:13:33.068Z,12.07
2018-07-23T00:16:01.056Z,12.73
2018-07-23T00:18:29.235Z,11.87
2018-07-23T00:20:57.330Z,16.63
2018-07-23T00:23:25.333Z,11.47
2018-07-23T00:25:53.036Z,13.93
2018-07-23T00:28:20.826Z,20.43
2018-07-23T00:30:48.802Z,11.53
2018-07-23T00:33:16.985Z,11.70
2018-07-23T00:35:44.852Z,19.27
2018-07-23T00:38:12.613Z,11.13
2018-07-23T00:40:40.820Z,11.63
2018-07-23T00:43:08.717Z,14.40
2018-07-23T00:45:36.753Z,11.63
2018-07-23T00:48:04.498Z,13.80
2018-07-23T00:50:32.186Z,15.23
2018-07-23T00:53:00.176Z,10.93
2018-07-23T00:55:28.001Z,10.63
2018-07-23T00:57:55.702Z,11.10
2018-07-23T01:00:30.527Z,12.87
2018-07-23T01:03:04.259Z,10.80
2018-07-23T01:05:32.028Z,15.97
2018-07-23T01:08:00.215Z,12.77
2018-07-23T01:10:28.327Z,16.57
2018-07-23T01:12:56.141Z,10.30
2018-07-23T01:15:24.319Z,12.13
2018-07-23T01:17:52.471Z,11.43
2018-07-23T01:20:20.612Z,16.23
2018-07-23T01:22:48.669Z,15.70
2018-07-23T01:25:16.953Z,18.33
2018-07-23T01:27:45.188Z,10.57
2018-07-23T01:30:13.144Z,10.87
2018-07-23T01:32:41.203Z,14.23
2018-07-23T01:35:09.133Z,14.23
2018-07-23T01:37:37.348Z,11.67
2018-07-23T01:40:05.523Z,15.73
2018-07-23T01:42:33.786Z,15.70
2018-07-23T01:45:01.798Z,12.93
2018-07-23T01:47:29.846Z,13.00
2018-07-23T01:49:57.848Z,11.37
2018-07-23T01:52:25.700Z,10.60
2018-07-23T01:54:54.067Z,15.63
2018-07-23T01:57:22.146Z,15.00
2018-07-23T01:59:49.895Z,10.97
2018-07-23T02:02:17.498Z,13.67
2018-07-23T02:04:45.840Z,17.57
2018-07-23T02:07:13.571Z,10.60
2018-07-23T02:09:41.661Z,13.50
2018-07-23T02:12:09.571Z,18.10
2018-07-23T02:14:37.942Z,10.80
2018-07-23T02:17:06.555Z,12.93
2018-07-23T02:19:34.964Z,14.17
2018-07-23T02:22:03.240Z,10.47
2018-07-23T02:24:31.280Z,14.83
2018-07-23T02:26:59.512Z,16.80
2018-07-23T02:29:27.190Z,13.03
2018-07-23T02:31:55.524Z,24.43
2018-07-23T02:34:23.484Z,11.23
2018-07-23T02:36:51.248Z,10.73
2018-07-23T02:39:19.198Z,13.67
2018-07-23T02:41:47.036Z,12.77
2018-07-23T02:44:15.249Z,16.73
2018-07-23T02:46:43.039Z,10.13
2018-07-23T02:49:11.269Z,17.53
2018-07-23T02:51:39.265Z,10.00
2018-07-23T02:54:07.361Z,10.70
2018-07-23T02:56:35.772Z,12.00
2018-07-23T02:59:03.735Z,14.80
2018-07-23T03:01:31.555Z,10.40
2018-07-23T03:03:59.728Z,17.00
2018-07-23T03:06:28.818Z,13.60
2018-07-23T03:08:57.071Z,12.40
2018-07-23T03:11:25.323Z,14.10
2018-07-23T03:13:53.178Z,10.30
2018-07-23T03:16:21.922Z,11.80
2018-07-23T03:18:50.818Z,15.43
2018-07-23T03:21:18.697Z,10.40
2018-07-23T03:23:46.531Z,12.90
2018-07-23T03:26:14.709Z,11.30
2018-07-23T03:28:42.672Z,13.43
2018-07-23T03:31:10.587Z,12.40
2018-07-23T03:33:38.612Z,15.63
2018-07-23T03:36:06.622Z,11.70
2018-07-23T03:38:34.699Z,13.77
2018-07-23T03:41:02.605Z,11.10
2018-07-23T03:43:30.758Z,12.83
2018-07-23T03:45:58.586Z,13.83
2018-07-23T03:48:26.405Z,13.23
2018-07-23T03:50:54.395Z,11.43
2018-07-23T03:53:22.361Z,12.60
2018-07-23T03:55:50.443Z,11.90
2018-07-23T03:58:18.555Z,15.20
2018-07-23T04:00:46.529Z,12.37
2018-07-23T04:03:14.704Z,11.80
2018-07-23T04:05:42.669Z,11.40
2018-07-23T04:08:10.528Z,11.67
2018-07-23T04:10:38.844Z,11.47
2018-07-23T04:13:07.019Z,13.20
2018-07-23T04:15:35.133Z,11.17
2018-07-23T04:18:03.804Z,16.93
2018-07-23T04:20:33.780Z,13.83
2018-07-23T04:23:01.947Z,15.47
2018-07-23T04:25:30.179Z,13.10
2018-07-23T04:27:58.083Z,12.40
2018-07-23T04:30:25.906Z,13.17
2018-07-23T04:32:53.565Z,10.63
2018-07-23T04:35:21.342Z,10.87
2018-07-23T04:37:49.552Z,10.40
2018-07-23T04:40:17.589Z,10.47
2018-07-23T04:42:45.898Z,12.73
2018-07-23T04:45:13.838Z,13.53
2018-07-23T04:47:42.337Z,15.83
2018-07-23T04:50:10.360Z,21.70
2018-07-23T04:52:38.356Z,11.83
2018-07-23T04:55:07.298Z,12.53
2018-07-23T04:57:35.429Z,12.10
2018-07-23T05:00:03.670Z,16.83
2018-07-23T05:02:31.376Z,14.13
2018-07-23T05:04:59.920Z,11.40
2018-07-23T05:07:28.360Z,10.97
2018-07-23T05:09:56.444Z,11.37
2018-07-23T05:12:24.380Z,16.43
2018-07-23T05:14:52.336Z,11.67
2018-07-23T05:17:20.520Z,12.93
2018-07-23T05:19:48.647Z,14.87
2018-07-23T05:22:16.667Z,14.00
2018-07-23T05:24:44.979Z,12.60
2018-07-23T05:27:12.928Z,13.57
2018-07-23T05:29:41.857Z,12.30
2018-07-23T05:32:10.192Z,13.50
2018-07-23T05:34:38.136Z,18.50
2018-07-23T05:37:06.399Z,17.47
2018-07-23T05:39:34.402Z,14.40
2018-07-23T05:42:02.384Z,14.67
2018-07-23T05:44:30.283Z,13.43
2018-07-23T05:46:58.306Z,13.30
2018-07-23T05:49:26.254Z,13.27
2018-07-23T05:51:54.313Z,13.97
2018-07-23T05:54:22.283Z,13.20
2018-07-23T05:56:50.385Z,14.03
2018-07-23T05:59:18.776Z,13.90
2018-07-23T06:01:46.614Z,14.27
2018-07-23T06:04:14.689Z,11.83
2018-07-23T06:06:42.563Z,12.63
2018-07-23T06:09:10.829Z,11.93
2018-07-23T06:11:38.790Z,13.47
2018-07-23T06:14:07.210Z,13.33
2018-07-23T06:16:38.171Z,12.30
2018-07-23T06:19:06.183Z,13.60
2018-07-23T06:21:34.474Z,15.83
2018-07-23T06:24:02.619Z,13.33
2018-07-23T06:26:31.015Z,12.03
2018-07-23T06:28:59.167Z,11.10
2018-07-23T06:31:27.346Z,11.63
2018-07-23T06:33:55.990Z,10.93
2018-07-23T06:36:24.120Z,11.77
2018-07-23T06:38:52.402Z,11.63
2018-07-23T06:41:20.598Z,13.43
2018-07-23T06:43:48.840Z,28.77
2018-07-23T06:46:17.724Z,18.30
2018-07-23T06:48:45.907Z,17.73
2018-07-23T06:51:13.879Z,14.47
2018-07-23T06:53:41.783Z,15.90
2018-07-23T06:56:09.772Z,14.40
2018-07-23T06:58:37.752Z,19.47
2018-07-23T07:01:05.899Z,22.13
2018-07-23T07:03:33.857Z,13.97
2018-07-23T07:06:02.088Z,18.07
2018-07-23T07:08:29.871Z,13.30
2018-07-23T07:10:57.991Z,15.10
2018-07-23T07:13:26.005Z,12.40
2018-07-23T07:15:54.676Z,13.80
2018-07-23T07:18:22.737Z,14.17
2018-07-23T07:20:50.851Z,18.27
2018-07-23T07:23:18.828Z,15.33
2018-07-23T07:25:46.803Z,14.37
2018-07-23T07:28:14.835Z,16.23
2018-07-23T07:30:42.777Z,14.20
2018-07-23T07:33:10.820Z,14.33
2018-07-23T07:35:38.950Z,13.97
2018-07-23T07:38:07.682Z,11.93
2018-07-23T07:40:35.372Z,13.00
2018-07-23T07:43:03.320Z,13.63
2018-07-23T07:45:31.447Z,19.90
2018-07-23T07:47:59.394Z,17.70
2018-07-23T07:50:27.596Z,13.90
2018-07-23T07:52:55.454Z,19.60
2018-07-23T07:55:23.514Z,16.80
2018-07-23T07:57:52.103Z,15.20
2018-07-23T08:00:20.429Z,14.23
2018-07-23T08:02:48.542Z,13.97
2018-07-23T08:05:18.760Z,13.77
2018-07-23T08:07:47.056Z,21.07
2018-07-23T08:10:15.089Z,12.70
2018-07-23T08:12:43.450Z,13.33
2018-07-23T08:15:12.360Z,14.20
2018-07-23T08:17:40.420Z,13.10
2018-07-23T08:20:09.084Z,13.17
2018-07-23T08:22:37.161Z,14.13
2018-07-23T08:25:05.125Z,12.83
2018-07-23T08:27:33.175Z,14.70
2018-07-23T08:30:02.133Z,12.53
2018-07-23T08:32:30.160Z,12.07
2018-07-23T08:34:58.423Z,12.20
2018-07-23T08:37:26.367Z,12.77
2018-07-23T08:39:54.520Z,13.47
2018-07-23T08:42:22.932Z,12.30
2018-07-23T08:44:51.374Z,12.17
2018-07-23T08:47:19.345Z,11.67
2018-07-23T08:49:47.356Z,14.00
2018-07-23T08:52:15.461Z,20.30
2018-07-23T08:54:44.126Z,11.80
2018-07-23T08:57:12.215Z,12.83
2018-07-23T08:59:40.050Z,8.93
2018-07-23T09:02:09.100Z,9.10
2018-07-23T09:04:37.450Z,9.87
2018-07-23T09:07:05.557Z,9.30
2018-07-23T09:09:33.816Z,10.77
2018-07-23T09:12:01.735Z,9.60
2018-07-23T09:14:29.808Z,9.20
2018-07-23T09:16:58.247Z,9.07
2018-07-23T09:19:26.552Z,9.50
2018-07-23T09:21:55.402Z,8.27
2018-07-23T09:24:23.458Z,8.00
2018-07-23T09:26:52.057Z,8.90
2018-07-23T09:29:20.109Z,9.27
2018-07-23T09:31:48.916Z,10.33
2018-07-23T09:34:17.083Z,9.60
2018-07-23T09:36:45.081Z,9.10
2018-07-23T09:39:13.014Z,8.67
2018-07-23T09:41:40.992Z,9.90
2018-07-23T09:44:09.067Z,8.40
2018-07-23T09:46:36.885Z,7.90
2018-07-23T09:49:05.026Z,9.63
2018-07-23T09:51:33.394Z,8.37
2018-07-23T09:54:01.538Z,8.73
2018-07-23T09:56:29.432Z,10.73
2018-07-23T09:58:57.372Z,9.90
2018-07-23T10:01:25.447Z,10.80
2018-07-23T10:03:53.460Z,8.70
2018-07-23T10:06:21.616Z,9.20
2018-07-23T10:08:49.778Z,9.60
2018-07-23T10:11:18.400Z,9.00
2018-07-23T10:13:47.141Z,10.17
2018-07-23T10:16:15.425Z,10.00
2018-07-23T10:18:43.282Z,10.83
2018-07-23T10:21:11.881Z,10.13
2018-07-23T10:23:40.361Z,9.23
2018-07-23T10:26:08.392Z,8.73
2018-07-23T10:28:36.635Z,7.67
2018-07-23T10:31:04.789Z,12.73
2018-07-23T10:33:32.839Z,8.63
2018-07-23T10:36:01.245Z,9.20
2018-07-23T10:38:29.479Z,11.60
2018-07-23T10:40:57.203Z,9.43
2018-07-23T10:43:25.654Z,9.17
2018-07-23T10:45:54.914Z,8.10
2018-07-23T10:48:23.113Z,15.23
2018-07-23T10:50:51.551Z,9.57
2018-07-23T10:53:19.763Z,8.73
2018-07-23T10:55:47.837Z,9.70
2018-07-23T10:58:15.715Z,10.27
2018-07-23T11:00:43.761Z,8.47
2018-07-23T11:03:12.398Z,8.57
2018-07-23T11:05:40.232Z,11.37
2018-07-23T11:08:08.346Z,8.63
2018-07-23T11:10:36.480Z,8.23
2018-07-23T11:13:04.289Z,8.30
2018-07-23T11:15:33.651Z,8.33
2018-07-23T11:18:01.641Z,14.23
2018-07-23T11:20:29.993Z,10.20
2018-07-23T11:22:58.060Z,7.80
2018-07-23T11:25:39.179Z,7.77
2018-07-23T11:27:53.987Z,8.27
2018-07-23T11:30:22.092Z,9.50
2018-07-23T11:32:50.042Z,11.43
2018-07-23T11:35:18.215Z,7.80
2018-07-23T11:37:46.091Z,8.20
2018-07-23T11:40:13.957Z,12.83
2018-07-23T11:42:42.102Z,11.13
2018-07-23T11:45:10.188Z,9.03
2018-07-23T11:47:38.565Z,9.40
2018-07-23T11:50:06.936Z,6.60
2018-07-23T11:52:35.557Z,7.27
2018-07-23T11:55:03.775Z,7.23
2018-07-23T11:57:32.259Z,7.40
2018-07-23T12:00:00.221Z,10.93
2018-07-23T12:02:28.189Z,13.30
2018-07-23T12:04:56.812Z,6.83
2018-07-23T12:07:24.739Z,7.67
2018-07-23T12:09:52.946Z,7.10
2018-07-23T12:12:21.001Z,8.27
2018-07-23T12:14:48.954Z,10.63
2018-07-23T12:17:17.151Z,7.90
2018-07-23T12:19:45.919Z,6.40
2018-07-23T12:22:14.511Z,6.30
2018-07-23T12:24:43.020Z,6.27
2018-07-23T12:27:11.271Z,8.40
2018-07-23T12:29:39.657Z,5.97
2018-07-23T12:32:07.615Z,6.20
2018-07-23T12:34:36.064Z,6.80
2018-07-23T12:37:04.077Z,6.63
2018-07-23T12:39:32.401Z,13.27
2018-07-23T12:42:00.615Z,8.27
2018-07-23T12:44:28.468Z,6.10
2018-07-23T12:46:56.353Z,6.63
2018-07-23T12:49:24.597Z,6.27
2018-07-23T12:51:52.335Z,7.50
2018-07-23T12:54:20.459Z,6.43
2018-07-23T12:56:48.433Z,6.60
2018-07-23T12:59:16.649Z,6.77
2018-07-23T13:01:44.465Z,7.20
2018-07-23T13:04:12.594Z,6.73
2018-07-23T13:06:40.790Z,7.57
2018-07-23T13:09:11.971Z,8.97
2018-07-23T13:11:40.166Z,6.70
2018-07-23T13:14:08.473Z,6.50
2018-07-23T13:16:39.149Z,7.20
2018-07-23T13:19:07.747Z,7.00
2018-07-23T13:21:37.361Z,7.33
2018-07-23T13:24:05.569Z,11.80
2018-07-23T13:26:33.836Z,7.40
2018-07-23T13:29:01.484Z,6.10
2018-07-23T13:31:29.917Z,6.63
2018-07-23T13:33:57.802Z,6.27
2018-07-23T13:36:25.879Z,5.70
2018-07-23T13:38:54.344Z,6.63
2018-07-23T13:41:22.372Z,7.00
2018-07-23T13:43:50.846Z,6.03
2018-07-23T13:46:19.134Z,5.50
2018-07-23T13:48:47.725Z,7.40
2018-07-23T13:51:17.053Z,9.63
2018-07-23T13:53:45.361Z,7.00
2018-07-23T13:56:13.431Z,7.20
2018-07-23T13:58:41.377Z,6.50
2018-07-23T14:01:09.707Z,6.57
2018-07-23T14:03:38.121Z,6.60
2018-07-23T14:06:06.137Z,8.60
2018-07-23T14:08:34.273Z,6.87
2018-07-23T14:11:02.276Z,6.83
2018-07-23T14:13:30.625Z,6.20
2018-07-23T14:16:00.408Z,6.30
2018-07-23T14:18:28.683Z,6.53
2018-07-23T14:20:56.899Z,17.83
2018-07-23T14:23:25.041Z,6.60
2018-07-23T14:25:53.706Z,6.30
2018-07-23T14:28:21.943Z,5.90
2018-07-23T14:30:50.325Z,6.20
2018-07-23T14:33:19.472Z,6.67
2018-07-23T14:35:48.211Z,5.03
2018-07-23T14:38:16.967Z,6.30
2018-07-23T14:40:44.814Z,5.93
2018-07-23T14:43:13.378Z,9.83
2018-07-23T14:45:41.191Z,7.80
2018-07-23T14:48:09.443Z,6.90
2018-07-23T14:50:37.842Z,6.80
2018-07-23T14:53:06.351Z,9.57
2018-07-23T14:55:34.311Z,5.80
2018-07-23T14:58:02.148Z,6.43
2018-07-23T15:00:30.261Z,8.67
2018-07-23T15:02:58.282Z,5.60
2018-07-23T15:05:26.335Z,6.60
2018-07-23T15:07:54.485Z,6.03
2018-07-23T15:10:22.483Z,6.20
2018-07-23T15:12:50.480Z,6.20
2018-07-23T15:15:18.846Z,5.73
2018-07-23T15:17:46.989Z,8.97
2018-07-23T15:20:15.191Z,5.53
2018-07-23T15:22:43.072Z,5.23
2018-07-23T15:25:11.666Z,5.50
2018-07-23T15:27:39.640Z,6.10
2018-07-23T15:30:07.947Z,5.90
2018-07-23T15:32:35.864Z,15.10
2018-07-23T15:35:03.893Z,6.30
2018-07-23T15:37:31.840Z,6.37
2018-07-23T15:40:00.056Z,9.43
2018-07-23T15:42:27.974Z,5.97
2018-07-23T15:44:56.841Z,5.90
2018-07-23T15:47:24.619Z,5.17
2018-07-23T15:49:52.540Z,6.80
2018-07-23T15:52:21.392Z,6.57
2018-07-23T15:54:49.709Z,6.13
2018-07-23T15:57:17.702Z,6.70
2018-07-23T15:59:45.745Z,5.50
2018-07-23T16:02:13.565Z,5.40
2018-07-23T16:04:41.838Z,5.20
2018-07-23T16:07:09.783Z,5.40
2018-07-23T16:09:37.671Z,5.60
2018-07-23T16:12:06.127Z,4.80
2018-07-23T16:14:34.008Z,4.73
2018-07-23T16:17:02.673Z,4.50
2018-07-23T16:19:31.139Z,4.87
2018-07-23T16:21:59.227Z,4.77
2018-07-23T16:24:27.308Z,6.83
2018-07-23T16:26:55.167Z,5.43
2018-07-23T16:29:22.924Z,4.63
2018-07-23T16:31:52.452Z,4.50
2018-07-23T16:34:20.432Z,6.60
2018-07-23T16:36:48.652Z,4.50
2018-07-23T16:39:17.158Z,4.20
2018-07-23T16:41:45.317Z,4.60
2018-07-23T16:44:13.431Z,44.23
2018-07-23T16:46:41.202Z,5.60
2018-07-23T16:49:09.866Z,12.17
2018-07-23T16:51:38.082Z,6.20
2018-07-23T16:54:06.914Z,5.00
2018-07-23T16:56:36.085Z,4.23
2018-07-23T16:59:04.479Z,5.17
2018-07-23T17:01:32.618Z,4.30
2018-07-23T17:04:00.699Z,4.87
2018-07-23T17:06:28.943Z,5.63
2018-07-23T17:08:56.881Z,4.70
2018-07-23T17:11:25.500Z,4.37
2018-07-23T17:13:53.419Z,4.53
2018-07-23T17:16:21.698Z,3.90
2018-07-23T17:18:49.836Z,4.23
2018-07-23T17:21:17.895Z,4.33
2018-07-23T17:23:46.155Z,4.97
2018-07-23T17:26:14.244Z,4.13
2018-07-23T17:28:42.676Z,4.73
2018-07-23T17:31:10.515Z,4.90
2018-07-23T17:33:38.569Z,5.33
2018-07-23T17:36:06.833Z,5.20
2018-07-23T17:38:34.872Z,7.80
2018-07-23T17:41:03.193Z,4.50
2018-07-23T17:43:31.511Z,4.60
2018-07-23T17:46:00.386Z,5.20
2018-07-23T17:48:28.528Z,4.77
2018-07-23T17:50:56.717Z,4.83
2018-07-23T17:53:25.284Z,4.80
2018-07-23T17:55:53.269Z,3.80
2018-07-23T17:58:21.187Z,4.07
2018-07-23T18:00:49.124Z,4.33
2018-07-23T18:03:17.239Z,4.87
2018-07-23T18:05:45.313Z,5.07
2018-07-23T18:08:13.278Z,3.97
2018-07-23T18:10:41.118Z,5.43
2018-07-23T18:13:09.314Z,4.40
2018-07-23T18:15:37.801Z,6.47
2018-07-23T18:18:06.243Z,5.40
2018-07-23T18:20:34.376Z,5.50
2018-07-23T18:23:03.094Z,4.17
2018-07-23T18:25:31.194Z,9.73
2018-07-23T18:27:59.175Z,4.90
2018-07-23T18:30:27.622Z,4.53
2018-07-23T18:32:55.859Z,5.07
2018-07-23T18:35:29.007Z,4.37
2018-07-23T18:37:57.710Z,9.90
2018-07-23T18:40:25.857Z,4.53
2018-07-23T18:42:54.151Z,4.20
2018-07-23T18:45:22.363Z,4.17
2018-07-23T18:47:51.802Z,4.17
2018-07-23T18:50:19.851Z,9.37
2018-07-23T18:52:52.383Z,8.10
2018-07-23T18:55:20.518Z,4.40
2018-07-23T18:57:48.937Z,5.20
2018-07-23T19:00:17.217Z,9.80
2018-07-23T19:02:45.023Z,3.87
2018-07-23T19:05:12.980Z,4.20
2018-07-23T19:07:41.480Z,7.13
2018-07-23T19:10:11.640Z,5.23
2018-07-23T19:12:40.216Z,4.73
2018-07-23T19:15:09.523Z,5.80
2018-07-23T19:17:38.315Z,4.83
2018-07-23T19:20:07.641Z,5.97
2018-07-23T19:22:36.970Z,5.00
2018-07-23T19:25:05.151Z,5.90
2018-07-23T19:27:34.889Z,5.40
2018-07-23T19:30:03.341Z,4.60
2018-07-23T19:32:31.898Z,4.90
2018-07-23T19:35:01.103Z,5.00
2018-07-23T19:37:29.741Z,4.60
2018-07-23T19:39:58.075Z,5.30
2018-07-23T19:42:26.684Z,6.23
2018-07-23T19:44:55.606Z,4.43
2018-07-23T19:47:24.264Z,5.53
2018-07-23T19:49:53.002Z,5.40
2018-07-23T19:52:21.434Z,5.57
2018-07-23T19:54:52.062Z,8.20
2018-07-23T19:57:22.188Z,6.20
2018-07-23T19:59:50.580Z,6.73
2018-07-23T20:02:19.903Z,5.93
2018-07-23T20:04:49.151Z,6.50
2018-07-23T20:07:17.718Z,5.20
2018-07-23T20:09:46.358Z,5.83
2018-07-23T20:12:14.662Z,5.93
2018-07-23T20:14:43.426Z,10.03
2018-07-23T20:17:11.758Z,5.80
2018-07-23T20:19:40.593Z,6.97
2018-07-23T20:22:08.601Z,5.67
2018-07-23T20:24:36.953Z,6.20
2018-07-23T20:27:04.771Z,8.63
2018-07-23T20:29:33.311Z,6.13
2018-07-23T20:32:01.476Z,6.93
2018-07-23T20:34:29.654Z,6.43
2018-07-23T20:36:57.754Z,11.17
2018-07-23T20:39:26.388Z,5.90
2018-07-23T20:41:55.097Z,7.60
2018-07-23T20:44:25.023Z,5.80
2018-07-23T20:46:53.541Z,6.60
2018-07-23T20:49:21.403Z,7.23
2018-07-23T20:51:50.008Z,5.97
2018-07-23T20:54:18.273Z,5.60
2018-07-23T20:56:46.985Z,6.13
2018-07-23T20:59:15.391Z,5.87
2018-07-23T21:01:43.661Z,6.67
2018-07-23T21:04:12.131Z,5.93
2018-07-23T21:06:40.375Z,5.53
2018-07-23T21:09:08.511Z,6.73
2018-07-23T21:11:37.461Z,9.83
2018-07-23T21:14:05.540Z,6.93
2018-07-23T21:16:34.807Z,7.87
2018-07-23T21:19:02.723Z,9.77
2018-07-23T21:21:30.719Z,5.63
2018-07-23T21:23:59.601Z,4.87
2018-07-23T21:26:27.537Z,5.90
2018-07-23T21:28:55.761Z,5.70
2018-07-23T21:31:23.610Z,5.60
2018-07-23T21:33:51.893Z,7.37
2018-07-23T21:36:20.342Z,6.03
2018-07-23T21:38:49.256Z,5.93
2018-07-23T21:41:17.863Z,6.17
2018-07-23T21:43:46.182Z,6.30
2018-07-23T21:46:14.136Z,5.50
2018-07-23T21:48:43.238Z,5.93
2018-07-23T21:51:11.530Z,5.90
2018-07-23T21:53:39.446Z,5.47
2018-07-23T21:56:07.532Z,6.20
2018-07-23T21:58:36.005Z,5.60
2018-07-23T22:01:04.634Z,9.07
2018-07-23T22:03:32.881Z,6.87
2018-07-23T22:06:00.995Z,6.07
2018-07-23T22:08:29.335Z,6.30
2018-07-23T22:10:57.447Z,5.57
2018-07-23T22:13:25.579Z,11.40
2018-07-23T22:15:55.495Z,6.53
2018-07-23T22:18:23.578Z,5.30
2018-07-23T22:20:52.147Z,6.33
2018-07-23T22:23:20.168Z,5.60
2018-07-23T22:25:49.367Z,6.37
2018-07-23T22:28:18.844Z,6.30
2018-07-23T22:30:47.417Z,5.73
2018-07-23T22:33:15.558Z,6.93
2018-07-23T22:35:44.018Z,10.00
2018-07-23T22:38:12.258Z,18.20
2018-07-23T22:40:40.323Z,7.40
2018-07-23T22:43:08.741Z,5.93
2018-07-23T22:45:37.344Z,6.40
2018-07-23T22:48:05.644Z,6.40
2018-07-23T22:50:33.611Z,6.07
2018-07-23T22:53:02.074Z,7.97
2018-07-23T22:55:30.331Z,5.77
2018-07-23T22:57:58.393Z,5.90
2018-07-23T23:00:26.436Z,6.30
2018-07-23T23:02:54.957Z,9.47
2018-07-23T23:05:23.390Z,6.20
2018-07-23T23:07:51.266Z,6.50
2018-07-23T23:10:19.844Z,6.20
2018-07-23T23:12:47.602Z,5.93
2018-07-23T23:15:15.476Z,7.90
2018-07-23T23:17:43.335Z,6.80
2018-07-23T23:20:11.076Z,8.40
2018-07-23T23:22:39.437Z,5.50
2018-07-23T23:25:07.305Z,6.00
2018-07-23T23:27:35.411Z,5.93
2018-07-23T23:30:03.354Z,9.03
2018-07-23T23:32:31.662Z,7.50
2018-07-23T23:34:59.423Z,6.30
2018-07-23T23:37:27.387Z,5.73
2018-07-23T23:39:55.056Z,5.73
2018-07-23T23:42:23.476Z,6.40
2018-07-23T23:44:51.732Z,20.37
2018-07-23T23:47:19.706Z,6.00
2018-07-23T23:49:48.678Z,9.63
2018-07-23T23:52:16.742Z,6.67
2018-07-23T23:54:44.813Z,8.00
2018-07-23T23:57:12.801Z,6.90
2018-07-23T23:59:40.741Z,6.43
